Terminal Aerodrome Forecast
Issued by NWS Indianapolis, IN

Current Version | Previous Version | Text Only | Print | Product List | Glossary On
Versions: 1 2 3 4 5 6 7 8 9 10 11 12 13 14 15 16 17 18 19 20 21 22 23 24 25 26
821
FTUS43 KIND 302016 AAA
TAFIND
TAF AMD
KIND 302016Z 3020/3124 21006KT P6SM SCT070 BKN090
     FM310100 VRB04KT P6SM SCT250
     FM311000 10004KT P6SM FEW060 BKN250
     FM311400 12006KT P6SM SCT060 BKN250=

USA.gov is the U.S. government's official web portal to all federal, state and local government web resources and services.